createdAt,value
2022-10-23T00:01:46.311Z,100.00
2022-10-23T00:04:12.418Z,100.00
2022-10-23T00:06:38.591Z,100.00
2022-10-23T00:09:04.722Z,100.00
2022-10-23T00:11:30.841Z,100.00
2022-10-23T00:13:57.004Z,100.00
2022-10-23T00:16:23.140Z,100.00
2022-10-23T00:18:49.288Z,100.00
2022-10-23T00:21:15.408Z,100.00
2022-10-23T00:23:41.543Z,100.00
2022-10-23T00:26:07.664Z,100.00
2022-10-23T00:28:33.803Z,100.00
2022-10-23T00:30:59.958Z,100.00
2022-10-23T00:33:26.097Z,100.00
2022-10-23T00:35:52.235Z,100.00
2022-10-23T00:38:18.343Z,100.00
2022-10-23T00:40:44.479Z,100.00
2022-10-23T00:43:10.660Z,100.00
2022-10-23T00:45:36.818Z,100.00
2022-10-23T00:48:02.965Z,100.00
2022-10-23T00:50:29.113Z,100.00
2022-10-23T00:52:55.257Z,100.00
2022-10-23T00:55:21.365Z,100.00
2022-10-23T00:57:47.521Z,100.00
2022-10-23T01:00:13.638Z,100.00
2022-10-23T01:02:39.938Z,100.00
2022-10-23T01:05:06.186Z,100.00
2022-10-23T01:07:32.323Z,100.00
2022-10-23T01:09:58.493Z,100.00
2022-10-23T01:12:24.671Z,100.00
2022-10-23T01:14:50.819Z,100.00
2022-10-23T01:17:16.929Z,100.00
2022-10-23T01:19:43.068Z,100.00
2022-10-23T01:22:09.219Z,100.00
2022-10-23T01:24:35.370Z,100.00
2022-10-23T01:27:01.482Z,100.00
2022-10-23T01:29:27.620Z,100.00
2022-10-23T01:31:53.745Z,100.00
2022-10-23T01:34:19.867Z,100.00
2022-10-23T01:36:45.980Z,100.00
2022-10-23T01:39:12.083Z,100.00
2022-10-23T01:41:38.240Z,100.00
2022-10-23T01:44:04.341Z,100.00
2022-10-23T01:46:30.450Z,100.00
2022-10-23T01:48:56.581Z,100.00
2022-10-23T01:51:22.685Z,100.00
2022-10-23T01:53:48.822Z,100.00
2022-10-23T01:56:14.925Z,100.00
2022-10-23T01:58:41.032Z,100.00
2022-10-23T02:01:07.240Z,100.00
2022-10-23T02:03:33.407Z,100.00
2022-10-23T02:05:59.539Z,100.00
2022-10-23T02:08:25.685Z,100.00
2022-10-23T02:10:51.826Z,100.00
2022-10-23T02:13:17.942Z,100.00
2022-10-23T02:15:44.075Z,100.00
2022-10-23T02:18:10.208Z,100.00
2022-10-23T02:20:36.385Z,100.00
2022-10-23T02:23:02.531Z,100.00
2022-10-23T02:25:28.653Z,100.00
2022-10-23T02:27:54.779Z,100.00
2022-10-23T02:30:20.888Z,100.00
2022-10-23T02:32:46.979Z,100.00
2022-10-23T02:35:13.136Z,100.00
2022-10-23T02:37:39.490Z,100.00
2022-10-23T02:40:05.710Z,100.00
2022-10-23T02:42:31.814Z,100.00
2022-10-23T02:44:57.959Z,100.00
2022-10-23T02:47:24.064Z,100.00
2022-10-23T02:49:50.209Z,100.00
2022-10-23T02:52:16.354Z,100.00
2022-10-23T02:54:42.461Z,100.00
2022-10-23T02:57:08.587Z,100.00
2022-10-23T02:59:34.710Z,100.00
2022-10-23T03:02:00.939Z,100.00
2022-10-23T03:04:27.084Z,100.00
2022-10-23T03:06:53.260Z,100.00
2022-10-23T03:09:19.358Z,100.00
2022-10-23T03:11:45.490Z,100.00
2022-10-23T03:14:11.629Z,100.00
2022-10-23T03:16:37.772Z,100.00
2022-10-23T03:19:03.940Z,100.00
2022-10-23T03:21:30.133Z,100.00
2022-10-23T03:23:56.233Z,100.00
2022-10-23T03:26:22.332Z,100.00
2022-10-23T03:28:48.475Z,100.00
2022-10-23T03:31:14.620Z,100.00
2022-10-23T03:33:40.740Z,100.00
2022-10-23T03:36:06.866Z,100.00
2022-10-23T03:38:32.986Z,100.00
2022-10-23T03:40:59.133Z,100.00
2022-10-23T03:43:25.234Z,100.00
2022-10-23T03:45:51.335Z,100.00
2022-10-23T03:48:17.479Z,100.00
2022-10-23T03:50:43.576Z,100.00
2022-10-23T03:53:09.693Z,100.00
2022-10-23T03:55:35.823Z,100.00
2022-10-23T03:58:01.961Z,100.00
2022-10-23T04:00:28.113Z,100.00
2022-10-23T04:02:54.234Z,100.00
2022-10-23T04:05:20.351Z,100.00
2022-10-23T04:07:46.453Z,100.00
2022-10-23T04:10:12.607Z,100.00
2022-10-23T04:12:38.738Z,100.00
2022-10-23T04:15:04.845Z,100.00
2022-10-23T04:17:31.005Z,100.00
2022-10-23T04:19:57.135Z,100.00
2022-10-23T04:22:26.015Z,100.00
2022-10-23T04:24:54.480Z,100.00
2022-10-23T04:27:20.586Z,100.00
2022-10-23T04:29:46.730Z,100.00
2022-10-23T04:32:12.843Z,100.00
2022-10-23T04:34:39.002Z,100.00
2022-10-23T04:37:05.121Z,100.00
2022-10-23T04:39:31.249Z,100.00
2022-10-23T04:41:57.406Z,100.00
2022-10-23T04:44:23.546Z,100.00
2022-10-23T04:46:49.661Z,100.00
2022-10-23T04:49:15.795Z,100.00
2022-10-23T04:51:41.947Z,100.00
2022-10-23T04:54:08.074Z,100.00
2022-10-23T04:56:34.197Z,100.00
2022-10-23T04:59:00.406Z,100.00
2022-10-23T05:01:26.652Z,100.00
2022-10-23T05:03:52.871Z,100.00
2022-10-23T05:06:18.981Z,100.00
2022-10-23T05:08:45.151Z,100.00
2022-10-23T05:11:11.296Z,100.00
2022-10-23T05:13:37.400Z,100.00
2022-10-23T05:16:03.563Z,100.00
2022-10-23T05:18:29.672Z,100.00
2022-10-23T05:20:55.801Z,100.00
2022-10-23T05:23:21.896Z,100.00
2022-10-23T05:25:48.021Z,100.00
2022-10-23T05:28:14.153Z,100.00
2022-10-23T05:30:40.282Z,100.00
2022-10-23T05:33:06.397Z,100.00
2022-10-23T05:35:32.520Z,100.00
2022-10-23T05:37:58.625Z,100.00
2022-10-23T05:40:24.874Z,100.00
2022-10-23T05:42:51.053Z,100.00
2022-10-23T05:45:17.176Z,100.00
2022-10-23T05:47:43.302Z,100.00
2022-10-23T05:50:09.415Z,100.00
2022-10-23T05:52:35.553Z,100.00
2022-10-23T05:55:04.537Z,100.00
2022-10-23T05:57:30.640Z,100.00
2022-10-23T05:59:56.748Z,100.00
2022-10-23T06:02:22.961Z,100.00
2022-10-23T06:04:49.087Z,100.00
2022-10-23T06:07:15.198Z,100.00
2022-10-23T06:09:41.490Z,100.00
2022-10-23T06:12:07.630Z,100.00
2022-10-23T06:14:33.733Z,100.00
2022-10-23T06:16:59.864Z,100.00
2022-10-23T06:19:26.006Z,100.00
2022-10-23T06:21:52.145Z,100.00
2022-10-23T06:24:18.271Z,100.00
2022-10-23T06:26:44.428Z,100.00
2022-10-23T06:29:10.540Z,100.00
2022-10-23T06:31:36.667Z,100.00
2022-10-23T06:34:02.817Z,100.00
2022-10-23T06:36:28.923Z,100.00
2022-10-23T06:38:55.095Z,100.00
2022-10-23T06:41:21.294Z,100.00
2022-10-23T06:43:47.427Z,100.00
2022-10-23T06:46:13.531Z,100.00
2022-10-23T06:48:39.676Z,100.00
2022-10-23T06:51:05.805Z,100.00
2022-10-23T06:53:31.962Z,100.00
2022-10-23T06:55:58.085Z,100.00
2022-10-23T06:58:24.208Z,100.00
2022-10-23T07:00:50.395Z,100.00
2022-10-23T07:03:16.630Z,100.00
2022-10-23T07:05:42.748Z,100.00
2022-10-23T07:08:08.874Z,100.00
2022-10-23T07:10:34.985Z,100.00
2022-10-23T07:13:01.369Z,100.00
2022-10-23T07:15:27.656Z,100.00
2022-10-23T07:17:53.766Z,100.00
2022-10-23T07:20:19.882Z,100.00
2022-10-23T07:22:46.025Z,100.00
2022-10-23T07:25:12.168Z,100.00
2022-10-23T07:27:38.300Z,100.00
2022-10-23T07:30:04.440Z,100.00
2022-10-23T07:32:30.593Z,100.00
2022-10-23T07:34:56.726Z,100.00
2022-10-23T07:37:22.841Z,100.00
2022-10-23T07:39:48.964Z,100.00
2022-10-23T07:42:15.109Z,100.00
2022-10-23T07:44:41.265Z,100.00
2022-10-23T07:47:07.374Z,100.00
2022-10-23T07:49:33.488Z,100.00
2022-10-23T07:51:59.975Z,100.00
2022-10-23T07:54:26.105Z,100.00
2022-10-23T07:56:52.213Z,100.00
2022-10-23T07:59:18.353Z,100.00
2022-10-23T08:01:44.572Z,100.00
2022-10-23T08:04:13.796Z,100.00
2022-10-23T08:06:39.915Z,100.00
2022-10-23T08:09:06.829Z,100.00
2022-10-23T08:11:33.324Z,100.00
2022-10-23T08:14:01.513Z,100.00
2022-10-23T08:16:27.896Z,100.00
2022-10-23T08:18:54.037Z,100.00
2022-10-23T08:21:20.258Z,100.00
2022-10-23T08:23:46.416Z,100.00
2022-10-23T08:26:12.722Z,100.00
2022-10-23T08:28:38.835Z,100.00
2022-10-23T08:31:04.974Z,100.00
2022-10-23T08:33:31.094Z,100.00
2022-10-23T08:35:57.224Z,100.00
2022-10-23T08:38:23.466Z,100.00
2022-10-23T08:40:49.581Z,100.00
2022-10-23T08:43:15.720Z,100.00
2022-10-23T08:45:41.836Z,100.00
2022-10-23T08:48:07.993Z,100.00
2022-10-23T08:50:34.154Z,100.00
2022-10-23T08:53:00.340Z,100.00
2022-10-23T08:55:26.460Z,100.00
2022-10-23T08:57:52.599Z,100.00
2022-10-23T09:00:18.703Z,100.00
2022-10-23T09:02:45.046Z,100.00
2022-10-23T09:05:11.427Z,100.00
2022-10-23T09:07:37.562Z,100.00
2022-10-23T09:10:03.790Z,100.00
2022-10-23T09:12:29.902Z,100.00
2022-10-23T09:14:56.036Z,100.00
2022-10-23T09:17:22.193Z,100.00
2022-10-23T09:19:48.295Z,100.00
2022-10-23T09:22:14.425Z,100.00
2022-10-23T09:24:40.553Z,100.00
2022-10-23T09:27:06.711Z,100.00
2022-10-23T09:29:32.887Z,95.98
2022-10-23T09:31:59.043Z,95.23
2022-10-23T09:34:25.196Z,96.26
2022-10-23T09:36:51.334Z,85.68
2022-10-23T09:39:17.520Z,87.06
2022-10-23T09:41:43.654Z,86.59
2022-10-23T09:44:09.759Z,91.91
2022-10-23T09:46:35.901Z,89.25
2022-10-23T09:49:04.973Z,87.17
2022-10-23T09:51:31.991Z,89.18
2022-10-23T09:53:58.120Z,90.66
2022-10-23T09:56:24.866Z,85.35
2022-10-23T09:58:52.197Z,83.10
2022-10-23T10:01:18.406Z,83.76
2022-10-23T10:03:44.568Z,78.18
2022-10-23T10:06:10.677Z,81.46
2022-10-23T10:08:36.804Z,83.56
2022-10-23T10:11:02.921Z,86.16
2022-10-23T10:13:29.080Z,92.18
2022-10-23T10:15:55.242Z,93.82
2022-10-23T10:18:21.399Z,94.97
2022-10-23T10:20:47.767Z,100.00
2022-10-23T10:23:13.909Z,92.70
2022-10-23T10:25:41.692Z,98.37
2022-10-23T10:28:07.826Z,94.67
2022-10-23T10:30:34.075Z,94.25
2022-10-23T10:33:00.231Z,99.64
2022-10-23T10:35:26.358Z,97.14
2022-10-23T10:37:52.950Z,96.03
2022-10-23T10:40:19.410Z,97.72
2022-10-23T10:42:45.578Z,92.25
2022-10-23T10:45:11.727Z,92.20
2022-10-23T10:47:37.880Z,89.60
2022-10-23T10:50:04.027Z,84.81
2022-10-23T10:52:30.542Z,84.98
2022-10-23T10:54:56.647Z,81.16
2022-10-23T10:57:22.752Z,80.99
2022-10-23T10:59:48.909Z,82.01
2022-10-23T11:02:15.108Z,78.84
2022-10-23T11:04:41.513Z,81.47
2022-10-23T11:07:07.669Z,81.95
2022-10-23T11:09:33.806Z,79.58
2022-10-23T11:11:59.907Z,84.18
2022-10-23T11:14:26.024Z,80.34
2022-10-23T11:16:52.188Z,82.09
2022-10-23T11:19:18.304Z,87.43
2022-10-23T11:21:44.469Z,89.24
2022-10-23T11:26:41.636Z,83.68
2022-10-23T11:29:07.761Z,84.54
2022-10-23T11:31:33.875Z,84.31
2022-10-23T11:34:00.045Z,86.55
2022-10-23T11:36:26.173Z,88.44
2022-10-23T11:38:52.315Z,93.64
2022-10-23T11:41:21.023Z,89.90
2022-10-23T11:43:49.896Z,94.37
2022-10-23T11:46:16.029Z,86.09
2022-10-23T11:48:42.146Z,87.33
2022-10-23T11:51:08.285Z,82.52
2022-10-23T11:53:34.420Z,80.70
2022-10-23T11:56:00.536Z,83.15
2022-10-23T11:58:26.682Z,80.87
2022-10-23T12:00:52.814Z,75.22
2022-10-23T12:03:26.486Z,72.23
2022-10-23T12:05:52.738Z,72.18
2022-10-23T12:08:18.965Z,70.36
2022-10-23T12:10:45.246Z,73.44
2022-10-23T12:13:11.374Z,72.43
2022-10-23T12:15:54.967Z,73.99
2022-10-23T12:21:13.911Z,75.73
2022-10-23T12:23:43.166Z,77.39
2022-10-23T12:26:11.963Z,75.45
2022-10-23T12:28:38.105Z,77.47
2022-10-23T12:31:04.291Z,77.92
2022-10-23T12:33:30.409Z,81.06
2022-10-23T12:35:56.539Z,77.33
2022-10-23T12:38:22.666Z,80.65
2022-10-23T12:40:48.767Z,81.42
2022-10-23T12:43:14.919Z,74.41
2022-10-23T12:45:41.061Z,74.96
2022-10-23T12:48:07.186Z,76.49
2022-10-23T12:50:33.322Z,76.00
2022-10-23T12:52:59.446Z,73.14
2022-10-23T12:55:25.573Z,73.82
2022-10-23T12:57:51.697Z,74.82
2022-10-23T13:00:18.001Z,74.07
2022-10-23T13:02:44.211Z,71.55
2022-10-23T13:05:10.374Z,78.25
2022-10-23T13:07:36.556Z,72.73
2022-10-23T13:10:05.699Z,69.72
2022-10-23T13:12:31.861Z,69.76
2022-10-23T13:14:58.050Z,68.60
2022-10-23T13:17:24.171Z,69.63
2022-10-23T13:19:50.399Z,64.12
2022-10-23T13:22:16.547Z,67.29
2022-10-23T13:24:42.686Z,68.16
2022-10-23T13:27:08.821Z,70.10
2022-10-23T13:29:35.033Z,65.27
2022-10-23T13:32:01.130Z,67.09
2022-10-23T13:34:27.328Z,66.30
2022-10-23T13:36:53.838Z,68.53
2022-10-23T13:39:20.049Z,69.13
2022-10-23T13:41:46.158Z,69.07
2022-10-23T13:44:12.276Z,68.32
2022-10-23T13:46:38.373Z,69.20
2022-10-23T13:49:04.675Z,67.88
2022-10-23T13:51:30.827Z,66.36
2022-10-23T13:53:56.966Z,68.24
2022-10-23T13:56:23.105Z,69.72
2022-10-23T13:58:49.233Z,71.58
2022-10-23T14:01:15.482Z,73.20
2022-10-23T14:03:41.664Z,74.87
2022-10-23T14:06:07.813Z,71.16
2022-10-23T14:08:33.980Z,71.26
2022-10-23T14:11:00.128Z,73.72
2022-10-23T14:13:26.292Z,78.29
2022-10-23T14:15:52.443Z,76.87
2022-10-23T14:18:18.605Z,76.29
2022-10-23T14:20:44.737Z,73.85
2022-10-23T14:23:10.877Z,74.51
2022-10-23T14:25:37.007Z,77.72
2022-10-23T14:28:03.170Z,75.52
2022-10-23T14:30:31.711Z,78.21
2022-10-23T14:32:57.819Z,78.57
2022-10-23T14:35:23.944Z,78.82
2022-10-23T14:37:50.237Z,82.55
2022-10-23T14:40:16.352Z,82.08
2022-10-23T14:42:42.502Z,84.64
2022-10-23T14:45:08.690Z,87.25
2022-10-23T14:47:34.829Z,90.60
2022-10-23T14:50:03.320Z,92.73
2022-10-23T14:52:29.507Z,93.38
2022-10-23T14:54:55.661Z,89.15
2022-10-23T14:57:24.108Z,86.19
2022-10-23T14:59:50.246Z,88.11
2022-10-23T15:02:16.390Z,85.39
2022-10-23T15:04:42.510Z,85.39
2022-10-23T15:07:08.622Z,84.79
2022-10-23T15:09:37.161Z,84.83
2022-10-23T15:12:03.277Z,84.05
2022-10-23T15:14:29.387Z,85.00
2022-10-23T15:16:55.516Z,86.91
2022-10-23T15:19:21.642Z,88.75
2022-10-23T15:21:47.789Z,87.92
2022-10-23T15:24:13.904Z,91.29
2022-10-23T15:26:40.055Z,87.25
2022-10-23T15:29:06.177Z,88.75
2022-10-23T15:31:32.286Z,87.30
2022-10-23T15:33:58.415Z,84.64
2022-10-23T15:36:24.529Z,88.86
2022-10-23T15:38:50.654Z,88.55
2022-10-23T15:41:16.776Z,90.48
2022-10-23T15:43:42.931Z,91.69
2022-10-23T15:46:10.336Z,93.46
2022-10-23T15:48:36.483Z,94.05
2022-10-23T15:51:02.639Z,94.93
2022-10-23T15:53:28.782Z,96.60
2022-10-23T15:55:54.900Z,95.87
2022-10-23T15:58:21.062Z,98.24
2022-10-23T16:00:47.204Z,98.38
2022-10-23T16:03:15.637Z,98.37
2022-10-23T16:05:41.759Z,100.00
2022-10-23T16:08:07.879Z,100.00
2022-10-23T16:10:34.074Z,100.00
2022-10-23T16:13:00.193Z,100.00
2022-10-23T16:15:26.322Z,100.00
2022-10-23T16:17:52.471Z,100.00
2022-10-23T16:20:18.583Z,100.00
2022-10-23T16:22:45.054Z,100.00
2022-10-23T16:25:11.330Z,100.00
2022-10-23T16:27:37.445Z,100.00
2022-10-23T16:30:03.574Z,100.00
2022-10-23T16:32:29.714Z,100.00
2022-10-23T16:34:55.898Z,100.00
2022-10-23T16:37:22.064Z,100.00
2022-10-23T16:39:48.325Z,100.00
2022-10-23T16:42:14.533Z,100.00
2022-10-23T16:44:40.875Z,100.00
2022-10-23T16:47:07.022Z,100.00
2022-10-23T16:49:33.189Z,100.00
2022-10-23T16:51:59.378Z,100.00
2022-10-23T16:54:25.575Z,100.00
2022-10-23T16:56:56.176Z,100.00
2022-10-23T16:59:25.357Z,100.00
2022-10-23T17:02:14.345Z,100.00
2022-10-23T17:04:38.310Z,100.00
2022-10-23T17:07:04.549Z,100.00
2022-10-23T17:09:30.746Z,100.00
2022-10-23T17:11:57.079Z,98.36
2022-10-23T17:14:23.624Z,97.94
2022-10-23T17:16:54.340Z,100.00
2022-10-23T17:22:09.308Z,100.00
2022-10-23T17:24:35.577Z,100.00
2022-10-23T17:27:01.815Z,100.00
2022-10-23T17:29:27.973Z,100.00
2022-10-23T17:31:54.137Z,100.00
2022-10-23T17:34:20.430Z,100.00
2022-10-23T17:36:46.673Z,100.00
2022-10-23T17:39:12.953Z,100.00
2022-10-23T17:41:39.099Z,100.00
2022-10-23T17:44:05.282Z,100.00
2022-10-23T17:46:31.490Z,100.00
2022-10-23T17:48:57.734Z,100.00
2022-10-23T17:51:23.891Z,100.00
2022-10-23T17:53:50.030Z,100.00
2022-10-23T17:56:16.214Z,100.00
2022-10-23T17:58:43.666Z,100.00
2022-10-23T18:01:09.945Z,100.00
2022-10-23T18:03:36.432Z,100.00
2022-10-23T18:06:02.790Z,100.00
2022-10-23T18:08:29.075Z,100.00
2022-10-23T18:10:55.241Z,100.00
2022-10-23T18:13:21.375Z,100.00
2022-10-23T18:15:47.542Z,100.00
2022-10-23T18:18:13.645Z,100.00
2022-10-23T18:20:39.811Z,100.00
2022-10-23T18:23:05.955Z,100.00
2022-10-23T18:25:32.476Z,100.00
2022-10-23T18:28:01.743Z,100.00
2022-10-23T18:30:28.763Z,100.00
2022-10-23T18:32:55.176Z,100.00
2022-10-23T18:35:21.819Z,100.00
2022-10-23T18:37:48.074Z,100.00
2022-10-23T18:40:14.245Z,100.00
2022-10-23T18:42:40.467Z,100.00
2022-10-23T18:45:06.948Z,100.00
2022-10-23T18:47:33.083Z,100.00
2022-10-23T18:49:59.252Z,100.00
2022-10-23T18:52:25.456Z,100.00
2022-10-23T18:54:51.793Z,100.00
2022-10-23T18:57:18.135Z,100.00
2022-10-23T18:59:46.159Z,100.00
2022-10-23T19:02:12.598Z,100.00
2022-10-23T19:04:38.933Z,100.00
2022-10-23T19:07:05.094Z,100.00
2022-10-23T19:09:31.784Z,100.00
2022-10-23T19:11:58.069Z,100.00
2022-10-23T19:14:24.587Z,100.00
2022-10-23T19:16:50.793Z,100.00
2022-10-23T19:19:17.145Z,100.00
2022-10-23T19:21:43.393Z,100.00
2022-10-23T19:24:09.626Z,100.00
2022-10-23T19:26:36.521Z,100.00
2022-10-23T19:29:03.466Z,100.00
2022-10-23T19:31:29.599Z,100.00
2022-10-23T19:33:55.943Z,100.00
2022-10-23T19:36:23.521Z,100.00
2022-10-23T19:38:50.220Z,100.00
2022-10-23T19:41:16.574Z,100.00
2022-10-23T19:43:42.701Z,100.00
2022-10-23T19:46:11.258Z,100.00
2022-10-23T19:48:39.980Z,100.00
2022-10-23T19:51:06.201Z,100.00
2022-10-23T19:53:32.855Z,100.00
2022-10-23T19:55:59.012Z,100.00
2022-10-23T19:58:25.138Z,100.00
2022-10-23T20:00:51.672Z,100.00
2022-10-23T20:03:18.679Z,100.00
2022-10-23T20:05:45.021Z,100.00
2022-10-23T20:08:11.335Z,100.00
2022-10-23T20:10:37.596Z,100.00
2022-10-23T20:13:18.611Z,100.00
2022-10-23T20:15:45.613Z,100.00
2022-10-23T20:18:11.757Z,100.00
2022-10-23T20:20:40.187Z,100.00
2022-10-23T20:23:06.345Z,100.00
2022-10-23T20:25:32.847Z,100.00
2022-10-23T20:27:59.106Z,100.00
2022-10-23T20:30:25.374Z,100.00
2022-10-23T20:32:51.569Z,100.00
2022-10-23T20:35:17.794Z,100.00
2022-10-23T20:37:44.446Z,100.00
2022-10-23T20:40:10.828Z,100.00
2022-10-23T20:42:36.950Z,100.00
2022-10-23T20:45:03.327Z,100.00
2022-10-23T20:47:29.503Z,100.00
2022-10-23T20:49:55.709Z,100.00
2022-10-23T20:52:21.884Z,100.00
2022-10-23T20:54:48.104Z,100.00
2022-10-23T20:57:17.965Z,100.00
2022-10-23T20:59:47.433Z,100.00
2022-10-23T21:02:13.680Z,100.00
2022-10-23T21:04:39.887Z,100.00
2022-10-23T21:07:10.699Z,100.00
2022-10-23T21:09:37.404Z,100.00
2022-10-23T21:12:03.596Z,100.00
2022-10-23T21:14:29.719Z,100.00
2022-10-23T21:16:55.880Z,100.00
2022-10-23T21:19:22.042Z,100.00
2022-10-23T21:21:48.181Z,100.00
2022-10-23T21:24:14.831Z,100.00
2022-10-23T21:26:40.950Z,100.00
2022-10-23T21:29:17.842Z,100.00
2022-10-23T21:31:44.983Z,100.00
2022-10-23T21:36:54.168Z,100.00
2022-10-23T21:39:28.360Z,100.00
2022-10-23T21:41:54.695Z,100.00
2022-10-23T21:44:20.819Z,100.00
2022-10-23T21:46:46.984Z,100.00
2022-10-23T21:49:13.132Z,100.00
2022-10-23T21:51:39.268Z,100.00
2022-10-23T21:54:05.437Z,100.00
2022-10-23T21:56:31.579Z,100.00
2022-10-23T21:58:57.788Z,100.00
2022-10-23T22:01:24.070Z,100.00
2022-10-23T22:03:50.282Z,100.00
2022-10-23T22:06:16.436Z,100.00
2022-10-23T22:08:42.582Z,100.00
2022-10-23T22:11:08.713Z,100.00
2022-10-23T22:13:34.973Z,100.00
2022-10-23T22:16:01.076Z,100.00
2022-10-23T22:18:27.198Z,100.00
2022-10-23T22:20:53.780Z,100.00
2022-10-23T22:23:21.597Z,100.00
2022-10-23T22:25:47.740Z,100.00
2022-10-23T22:28:13.947Z,100.00
2022-10-23T22:30:40.082Z,100.00
2022-10-23T22:33:06.195Z,100.00
2022-10-23T22:35:32.341Z,100.00
2022-10-23T22:37:58.475Z,100.00
2022-10-23T22:40:24.578Z,100.00
2022-10-23T22:42:50.720Z,100.00
2022-10-23T22:45:17.649Z,100.00
2022-10-23T22:47:43.818Z,100.00
2022-10-23T22:50:09.955Z,100.00
2022-10-23T22:52:36.117Z,100.00
2022-10-23T22:55:02.362Z,100.00
2022-10-23T22:57:28.511Z,100.00
2022-10-23T22:59:54.754Z,100.00
2022-10-23T23:02:20.885Z,100.00
2022-10-23T23:04:47.069Z,100.00
2022-10-23T23:07:13.657Z,100.00
2022-10-23T23:09:39.892Z,100.00
2022-10-23T23:12:06.015Z,100.00
2022-10-23T23:14:32.162Z,100.00
2022-10-23T23:16:58.303Z,100.00
2022-10-23T23:19:24.455Z,100.00
2022-10-23T23:21:50.621Z,100.00
2022-10-23T23:24:16.864Z,100.00
2022-10-23T23:26:42.998Z,100.00
2022-10-23T23:29:09.111Z,100.00
2022-10-23T23:31:35.245Z,100.00
2022-10-23T23:34:01.390Z,100.00
2022-10-23T23:36:27.524Z,100.00
2022-10-23T23:38:53.683Z,100.00
2022-10-23T23:41:19.845Z,100.00
2022-10-23T23:43:46.002Z,100.00
2022-10-23T23:46:12.112Z,100.00
2022-10-23T23:48:38.248Z,100.00
2022-10-23T23:51:04.405Z,100.00
2022-10-23T23:53:30.506Z,100.00
2022-10-23T23:55:56.609Z,100.00
2022-10-23T23:58:22.778Z,100.00
